Time;durP1;ratioP1;P1;durP2;ratioP2;P2;SDS_P1;SDS_P2;PMS_P1;PMS_P2;Temp;Humidity;BMP_temperature;BMP_pressure;BME280_temperature;BME280_humidity;BME280_pressure;Samples;Min_cycle;Max_cycle;Signal;HPM_P1;HPM_P2
2023/02/16 00:00:50;;;;;;;1.13;1.13;;;;;;;2.89;95.27;100800.38;5048638;28;20104;-75
2023/02/16 00:03:18;;;;;;;0.50;0.50;;;;;;;2.91;95.25;100794.44;5048353;28;20026;-74
2023/02/16 00:05:44;;;;;;;0.50;0.50;;;;;;;2.96;94.90;100790.34;5048648;28;20025;-74
2023/02/16 00:08:09;;;;;;;3.25;3.03;;;;;;;2.91;94.95;100785.88;5048383;28;20120;-74
2023/02/16 00:10:37;;;;;;;0.50;0.50;;;;;;;2.94;94.97;100804.78;5048189;28;20036;-74
2023/02/16 00:16:02;;;;;;;0.57;0.57;;;;;;;2.94;94.86;100789.41;5051577;28;20093;-72
2023/02/16 00:18:28;;;;;;;0.50;0.50;;;;;;;2.95;94.84;100787.72;5063632;28;20021;-74
2023/02/16 00:20:53;;;;;;;0.55;0.55;;;;;;;3.01;94.94;100798.16;5048122;28;20048;-74
2023/02/16 00:23:19;;;;;;;0.50;0.50;;;;;;;2.98;94.99;100810.88;5048011;28;20056;-74
2023/02/16 00:25:44;;;;;;;0.60;0.60;;;;;;;2.99;95.07;100801.50;5047843;28;20089;-74
2023/02/16 00:28:14;;;;;;;0.50;0.50;;;;;;;2.99;95.07;100793.81;5048214;28;20030;-74
2023/02/16 00:30:40;;;;;;;0.60;0.60;;;;;;;3.00;94.83;100778.47;5048099;28;20043;-73
2023/02/16 00:33:17;;;;;;;0.75;0.75;;;;;;;2.96;95.35;100792.00;5063521;28;20045;-73
2023/02/16 00:35:43;;;;;;;0.70;0.70;;;;;;;2.98;95.04;100792.94;5047925;28;20045;-73
2023/02/16 00:38:09;;;;;;;0.57;0.57;;;;;;;2.99;95.34;100802.34;5047505;28;20396;-73
2023/02/16 00:40:35;;;;;;;0.57;0.57;;;;;;;3.00;95.13;100796.44;5047673;28;20121;-74
2023/02/16 00:43:00;;;;;;;0.50;0.50;;;;;;;3.01;95.23;100794.72;5047598;28;20113;-72
2023/02/16 00:45:26;;;;;;;3.13;2.95;;;;;;;3.01;95.28;100781.88;5046372;28;20038;-73
2023/02/16 00:47:52;;;;;;;3.50;3.30;;;;;;;2.95;95.36;100778.34;5047510;28;20021;-73
2023/02/16 00:50:29;;;;;;;2.30;2.15;;;;;;;2.95;95.53;100782.59;5063010;28;20027;-73
2023/02/16 00:52:57;;;;;;;0.60;0.60;;;;;;;2.93;95.71;100782.53;5062293;28;20021;-74
2023/02/16 00:55:25;;;;;;;1.20;1.20;;;;;;;2.95;95.51;100770.66;5062604;28;20025;-73
2023/02/16 00:58:10;;;;;;;0.50;0.50;;;;;;;2.99;95.74;100774.16;5047122;28;20026;-73
2023/02/16 01:00:39;;;;;;;3.45;3.22;;;;;;;2.96;95.53;100774.06;5047345;28;20026;-73
2023/02/16 01:03:08;;;;;;;1.17;1.08;;;;;;;2.96;95.52;100768.94;5047206;28;20148;-73
2023/02/16 01:05:34;;;;;;;2.00;1.90;;;;;;;2.96;95.31;100772.38;5046989;28;20504;-73
2023/02/16 01:13:31;;;;;;;0.60;0.60;;;;;;;2.94;95.23;100720.16;5047286;28;20040;-73
2023/02/16 01:15:57;;;;;;;1.05;1.02;;;;;;;2.93;95.37;100725.25;5046786;28;20030;-75
2023/02/16 01:18:22;;;;;;;3.25;3.05;;;;;;;2.97;95.08;100729.66;5047242;28;20405;-74
2023/02/16 01:20:48;;;;;;;0.50;0.50;;;;;;;2.89;95.26;100711.44;5046969;28;20029;-73
2023/02/16 01:23:14;;;;;;;0.50;0.50;;;;;;;2.93;95.41;100731.25;5046827;28;20037;-74
2023/02/16 01:25:40;;;;;;;5.47;2.70;;;;;;;2.94;95.44;100738.09;5046563;28;20033;-74
2023/02/16 01:28:19;;;;;;;2.35;2.25;;;;;;;2.99;95.59;100745.09;5046525;28;20030;-73
2023/02/16 01:30:44;;;;;;;0.90;0.90;;;;;;;2.93;95.19;100730.38;5045493;28;20021;-73
2023/02/16 01:33:10;;;;;;;0.50;0.50;;;;;;;3.00;95.16;100736.56;5046512;28;20017;-74
2023/02/16 01:35:35;;;;;;;5.45;2.83;;;;;;;3.00;95.24;100736.56;5046521;28;20049;-74
2023/02/16 01:38:01;;;;;;;4.65;2.63;;;;;;;3.01;95.32;100733.16;5046406;28;20052;-74
2023/02/16 01:40:32;;;;;;;1.45;1.45;;;;;;;3.01;95.33;100738.28;5061535;28;20043;-74
2023/02/16 01:43:15;;;;;;;0.70;0.70;;;;;;;3.01;95.35;100734.03;5046422;28;20026;-73
2023/02/16 01:45:45;;;;;;;1.77;1.67;;;;;;;3.05;95.36;100727.28;5046405;28;20437;-73
2023/02/16 01:48:23;;;;;;;0.75;0.75;;;;;;;3.05;95.13;100724.72;5046246;28;20057;-74
2023/02/16 01:50:57;;;;;;;0.73;0.73;;;;;;;3.05;95.29;100735.00;5046456;28;20025;-74
2023/02/16 01:53:55;;;;;;;3.00;2.90;;;;;;;3.08;95.24;100729.94;5046451;28;20045;-74
2023/02/16 01:56:50;;;;;;;1.63;1.52;;;;;;;3.09;95.26;100732.56;5045915;28;20377;-74
2023/02/16 01:59:34;;;;;;;1.10;1.10;;;;;;;3.11;95.21;100732.59;5046203;28;20048;-74
2023/02/16 02:02:04;;;;;;;0.88;0.85;;;;;;;3.11;95.05;100735.16;5046007;28;20026;-73
2023/02/16 02:07:55;;;;;;;0.85;0.85;;;;;;;3.11;95.31;100732.59;5045977;28;20059;-74
2023/02/16 02:10:47;;;;;;;2.38;2.28;;;;;;;3.14;95.22;100726.66;5046056;28;20036;-74
2023/02/16 02:13:31;;;;;;;0.80;0.80;;;;;;;3.19;95.09;100722.53;5045830;28;20025;-75
2023/02/16 02:15:58;;;;;;;1.02;0.98;;;;;;;3.17;95.06;100716.47;5046010;28;20038;-73
2023/02/16 02:18:24;;;;;;;0.98;0.98;;;;;;;3.17;95.05;100717.38;5045617;28;20017;-74
2023/02/16 02:24:13;;;;;;;0.60;0.60;;;;;;;3.18;95.25;100720.81;5045898;28;20036;-74
2023/02/16 02:26:58;;;;;;;5.65;2.47;;;;;;;3.19;95.21;100707.13;5060889;28;20389;-74
2023/02/16 02:29:45;;;;;;;0.63;0.63;;;;;;;3.22;95.19;100700.41;5045650;28;20061;-75
2023/02/16 02:32:38;;;;;;;1.05;1.05;;;;;;;3.20;95.07;100696.91;5045586;28;20077;-75
2023/02/16 02:35:12;;;;;;;1.52;1.52;;;;;;;3.24;95.25;100689.31;5060939;28;20017;-75
2023/02/16 02:37:53;;;;;;;1.08;1.08;;;;;;;3.27;94.77;100673.97;5045457;28;20029;-75
2023/02/16 02:40:52;;;;;;;0.70;0.70;;;;;;;3.26;95.03;100677.38;5060737;28;20045;-74
2023/02/16 02:43:47;;;;;;;0.70;0.70;;;;;;;3.28;94.94;100675.72;5045503;28;20031;-74
2023/02/16 02:46:26;;;;;;;23.58;8.38;;;;;;;3.25;94.78;100663.69;5043288;28;20068;-73
2023/02/16 02:48:51;;;;;;;0.52;0.52;;;;;;;3.26;94.70;100660.28;5045476;28;20037;-75
2023/02/16 02:51:29;;;;;;;10.38;5.60;;;;;;;3.31;94.85;100660.38;5045346;28;20021;-74
2023/02/16 03:00:40;;;;;;;6.88;4.13;;;;;;;3.31;94.85;100660.38;5022911;28;20036;-75
2023/02/16 03:03:14;;;;;;;0.70;0.70;;;;;;;3.30;94.86;100663.78;5003326;28;20058;-74
2023/02/16 03:05:44;;;;;;;0.68;0.68;;;;;;;3.31;94.79;100656.13;5003398;28;20142;-75
2023/02/16 03:08:13;;;;;;;4.88;3.00;;;;;;;3.35;94.75;100657.09;5003214;28;20026;-75
2023/02/16 03:13:50;;;;;;;3.70;3.50;;;;;;;3.35;94.76;100647.66;5003448;28;20101;-75
2023/02/16 03:16:21;;;;;;;6.05;3.60;;;;;;;3.36;94.98;100643.41;5002584;28;20030;-73
2023/02/16 03:29:58;;;;;;;0.90;0.90;;;;;;;3.39;94.66;100615.25;5006152;28;20045;-75
2023/02/16 03:32:24;;;;;;;11.35;6.68;;;;;;;3.44;94.61;100616.25;5022930;28;20049;-75
2023/02/16 03:34:50;;;;;;;1.70;1.60;;;;;;;3.46;94.57;100608.59;5027389;28;20041;-75
2023/02/16 03:37:15;;;;;;;0.80;0.80;;;;;;;3.48;94.70;100606.94;5041138;28;20042;-75
2023/02/16 03:42:25;;;;;;;0.65;0.65;;;;;;;3.39;94.55;100591.28;5051320;28;20033;-72
2023/02/16 03:44:51;;;;;;;1.00;0.98;;;;;;;3.40;94.76;100601.63;5067037;28;20029;-74
2023/02/16 03:47:17;;;;;;;1.08;1.08;;;;;;;3.40;94.88;100588.78;5050735;28;20379;-74
2023/02/16 03:49:42;;;;;;;1.00;1.00;;;;;;;3.41;94.73;100575.09;5049763;28;20124;-75
2023/02/16 03:52:08;;;;;;;2.15;1.83;;;;;;;3.42;94.67;100566.56;5044825;28;20025;-75
2023/02/16 03:54:33;;;;;;;1.33;1.33;;;;;;;3.44;94.63;100575.19;5060247;28;20036;-75
2023/02/16 03:56:58;;;;;;;1.13;1.13;;;;;;;3.37;94.86;100563.00;5044635;28;20097;-75
2023/02/16 03:59:24;;;;;;;3.38;3.08;;;;;;;3.41;94.83;100569.09;5044626;28;20080;-75
2023/02/16 04:01:49;;;;;;;0.63;0.63;;;;;;;3.41;94.84;100559.72;5044763;28;20033;-74
2023/02/16 04:04:15;;;;;;;1.88;1.77;;;;;;;3.39;94.80;100569.06;5044492;28;20123;-75
2023/02/16 04:06:40;;;;;;;0.60;0.60;;;;;;;3.38;94.81;100563.88;5043245;28;20072;-74
2023/02/16 04:09:06;;;;;;;0.70;0.70;;;;;;;3.41;94.95;100559.72;5044657;28;20026;-75
2023/02/16 04:14:15;;;;;;;0.60;0.60;;;;;;;3.41;94.85;100574.22;5044398;28;20609;-74
2023/02/16 04:16:41;;;;;;;1.60;1.52;;;;;;;3.40;94.94;100568.25;5044517;28;20037;-74
2023/02/16 04:19:06;;;;;;;0.60;0.60;;;;;;;3.41;95.08;100576.78;5059768;28;20025;-74
2023/02/16 04:21:32;;;;;;;0.60;0.60;;;;;;;3.42;95.05;100576.84;5044405;28;20045;-74
2023/02/16 04:23:58;;;;;;;16.95;4.53;;;;;;;3.39;95.13;100581.88;5044409;28;20095;-73
2023/02/16 04:26:23;;;;;;;0.60;0.60;;;;;;;3.42;95.16;100583.69;5044422;28;20026;-73
2023/02/16 04:28:49;;;;;;;1.00;1.00;;;;;;;3.41;94.92;100581.94;5044075;28;20029;-74
2023/02/16 04:31:14;;;;;;;4.57;4.25;;;;;;;3.45;94.99;100576.06;5047971;28;20048;-74
2023/02/16 04:33:39;;;;;;;3.53;3.38;;;;;;;3.41;94.96;100571.66;5047964;28;20084;-74
2023/02/16 04:36:05;;;;;;;12.05;5.75;;;;;;;3.41;95.03;100581.94;5047791;28;20045;-72
2023/02/16 04:38:31;;;;;;;0.90;0.90;;;;;;;3.44;94.98;100582.88;5048180;28;20029;-73
2023/02/16 04:40:56;;;;;;;0.93;0.93;;;;;;;3.47;94.82;100574.38;5047587;28;20506;-72
2023/02/16 04:43:21;;;;;;;1.73;1.63;;;;;;;3.45;95.03;100564.06;5047454;28;20029;-72
2023/02/16 04:45:47;;;;;;;5.22;3.80;;;;;;;3.45;94.92;100568.34;5047789;28;20025;-72
2023/02/16 04:48:12;;;;;;;0.80;0.80;;;;;;;3.44;94.96;100559.78;5047348;28;20040;-72
2023/02/16 04:50:38;;;;;;;1.15;1.15;;;;;;;3.40;94.87;100557.09;5046430;28;20035;-72
2023/02/16 04:53:03;;;;;;;6.85;2.25;;;;;;;3.44;95.10;100564.03;5047622;28;20096;-71
2023/02/16 04:55:29;;;;;;;0.75;0.75;;;;;;;3.45;95.03;100556.38;5047462;28;20017;-71
2023/02/16 04:57:55;;;;;;;2.70;2.60;;;;;;;3.49;95.17;100553.88;5047146;28;20678;-72
2023/02/16 05:00:21;;;;;;;1.05;1.05;;;;;;;3.49;94.88;100561.56;5062771;28;20045;-72
2023/02/16 05:02:46;;;;;;;2.88;2.67;;;;;;;3.51;95.00;100560.78;5047367;28;20048;-72
2023/02/16 05:05:12;;;;;;;3.28;2.97;;;;;;;3.49;94.79;100561.56;5062714;28;20025;-71
2023/02/16 05:07:37;;;;;;;0.57;0.57;;;;;;;3.50;95.06;100571.88;5047277;28;20089;-66
2023/02/16 05:10:03;;;;;;;3.17;1.38;;;;;;;3.49;94.81;100572.72;5047326;28;20466;-71
2023/02/16 05:15:24;;;;;;;10.35;5.95;;;;;;;3.47;94.78;100567.53;5024690;28;20057;-71
2023/02/16 05:17:49;;;;;;;0.70;0.70;;;;;;;3.49;94.54;100567.59;5024856;28;20034;-71
2023/02/16 05:20:15;;;;;;;3.13;2.97;;;;;;;3.49;94.69;100576.97;5024822;28;20052;-71
2023/02/16 05:22:42;;;;;;;4.80;4.40;;;;;;;3.51;94.99;100575.31;5024742;28;20092;-71
2023/02/16 05:25:07;;;;;;;1.90;1.85;;;;;;;3.52;95.33;100566.78;5024868;28;20316;-71
2023/02/16 05:27:33;;;;;;;0.60;0.60;;;;;;;3.54;95.05;100570.25;5024523;28;20026;-72
2023/02/16 05:29:58;;;;;;;5.03;3.25;;;;;;;3.53;94.87;100559.09;5008347;28;20045;-71
2023/02/16 05:32:24;;;;;;;5.47;5.18;;;;;;;3.55;94.72;100556.56;5024479;28;20056;-73
2023/02/16 05:34:50;;;;;;;0.80;0.80;;;;;;;3.55;94.86;100567.72;5008262;28;20030;-72
2023/02/16 05:37:17;;;;;;;2.78;2.67;;;;;;;3.54;94.72;100554.84;5008021;28;20076;-72
2023/02/16 05:39:42;;;;;;;1.17;1.17;;;;;;;3.49;95.01;100561.56;5023193;28;20057;-72
2023/02/16 05:42:08;;;;;;;1.45;1.42;;;;;;;3.51;94.64;100555.66;5024015;28;20030;-73
2023/02/16 05:44:34;;;;;;;1.25;1.25;;;;;;;3.54;94.58;100571.13;5007713;28;20073;-76
2023/02/16 05:46:59;;;;;;;2.25;2.15;;;;;;;3.52;94.84;100569.34;5024637;28;20056;-74
2023/02/16 05:49:25;;;;;;;8.27;2.67;;;;;;;3.54;94.82;100567.69;5024461;28;20561;-74
2023/02/16 05:51:50;;;;;;;0.80;0.80;;;;;;;3.50;94.71;100564.16;5035912;28;20104;-74
2023/02/16 05:54:16;;;;;;;2.55;2.45;;;;;;;3.54;94.83;100567.69;5044935;28;20085;-73
2023/02/16 05:56:49;;;;;;;3.60;3.42;;;;;;;3.53;94.87;100563.41;5045895;28;20047;-73
2023/02/16 05:59:16;;;;;;;3.58;3.42;;;;;;;3.52;94.74;100561.63;5046182;28;20032;-72
2023/02/16 06:01:43;;;;;;;2.65;2.55;;;;;;;3.54;94.84;100565.13;5061137;28;20056;-73
2023/02/16 06:04:10;;;;;;;1.55;1.55;;;;;;;3.51;94.70;100557.34;5045955;28;20063;-73
2023/02/16 06:06:37;;;;;;;7.13;6.43;;;;;;;3.56;94.88;100568.59;5045816;28;20056;-72
2023/02/16 06:09:04;;;;;;;7.80;7.18;;;;;;;3.54;95.01;100562.56;5045932;28;20017;-72
2023/02/16 06:11:36;;;;;;;0.60;0.60;;;;;;;3.52;95.00;100561.63;5045952;28;20029;-74
2023/02/16 06:14:07;;;;;;;1.58;1.58;;;;;;;3.51;95.07;100558.22;5046365;28;20025;-73
2023/02/16 06:16:36;;;;;;;2.15;2.05;;;;;;;3.52;94.93;100556.50;5045921;28;20112;-71
2023/02/16 06:19:02;;;;;;;1.92;1.83;;;;;;;3.52;95.12;100557.38;5046371;28;20261;-74
2023/02/16 06:21:28;;;;;;;2.22;2.13;;;;;;;3.54;94.99;100554.84;5046131;28;20021;-74
2023/02/16 06:23:53;;;;;;;3.58;2.20;;;;;;;3.51;95.04;100557.34;5045874;28;20052;-73
2023/02/16 06:26:19;;;;;;;7.28;3.85;;;;;;;3.54;94.85;100552.28;5062434;28;20022;-74
2023/02/16 06:28:45;;;;;;;6.20;2.25;;;;;;;3.51;95.17;100560.78;5046425;28;20029;-75
2023/02/16 06:31:10;;;;;;;4.03;3.67;;;;;;;3.46;95.01;100547.84;5045701;28;20298;-75
2023/02/16 06:33:36;;;;;;;1.27;1.27;;;;;;;3.49;95.07;100551.31;5045823;28;20028;-75
2023/02/16 06:36:01;;;;;;;0.88;0.88;;;;;;;3.52;95.41;100559.94;5045807;28;20053;-75
2023/02/16 06:38:27;;;;;;;3.45;3.33;;;;;;;3.52;95.31;100556.50;5045624;28;20029;-75
2023/02/16 06:40:53;;;;;;;3.20;3.05;;;;;;;3.52;95.57;100559.94;5045477;28;20049;-75
2023/02/16 06:43:19;;;;;;;0.80;0.80;;;;;;;3.54;95.38;100554.84;5045317;28;20086;-76
2023/02/16 06:45:45;;;;;;;0.50;0.50;;;;;;;3.54;95.65;100549.72;5060802;28;20038;-75
2023/02/16 06:48:10;;;;;;;1.20;1.15;;;;;;;3.56;95.25;100545.50;5045426;28;20039;-76
2023/02/16 06:50:36;;;;;;;1.98;1.88;;;;;;;3.60;95.09;100549.84;5043895;28;20228;-76
2023/02/16 06:53:01;;;;;;;2.75;2.60;;;;;;;3.61;95.33;100546.44;5045134;28;20033;-77
2023/02/16 06:55:27;;;;;;;1.33;1.23;;;;;;;3.55;95.31;100538.59;5045405;28;20462;-77
2023/02/16 06:57:53;;;;;;;0.93;0.93;;;;;;;3.62;95.30;100547.31;5045208;28;20029;-77
2023/02/16 07:00:18;;;;;;;1.08;1.08;;;;;;;3.59;95.60;100545.56;5045424;28;20052;-77
2023/02/16 07:02:45;;;;;;;4.75;4.45;;;;;;;3.59;95.41;100540.44;5045345;28;20097;-77
2023/02/16 07:05:11;;;;;;;4.32;4.10;;;;;;;3.61;95.66;100549.00;5045460;28;20029;-77
2023/02/16 07:07:36;;;;;;;11.18;2.45;;;;;;;3.66;95.82;100555.13;5045318;28;20432;-79
2023/02/16 07:10:02;;;;;;;0.70;0.70;;;;;;;3.61;95.57;100553.31;5045375;28;20022;-77
2023/02/16 07:12:28;;;;;;;0.90;0.90;;;;;;;3.63;95.70;100547.34;5045285;28;20097;-78
2023/02/16 07:14:53;;;;;;;0.82;0.82;;;;;;;3.66;95.75;100549.16;5060493;28;20014;-78
2023/02/16 07:17:18;;;;;;;0.90;0.90;;;;;;;3.62;95.72;100537.94;5045340;28;20039;-78
2023/02/16 07:19:44;;;;;;;1.08;1.08;;;;;;;3.71;95.77;100550.09;5045379;28;20045;-77
2023/02/16 07:22:09;;;;;;;1.92;1.83;;;;;;;3.69;95.50;100539.78;5043796;28;20048;-78
2023/02/16 07:24:35;;;;;;;0.90;0.90;;;;;;;3.61;95.84;100523.34;5045312;28;20076;-78
2023/02/16 07:27:00;;;;;;;4.95;4.68;;;;;;;3.71;95.55;100538.13;5045251;28;20394;-78
2023/02/16 07:29:26;;;;;;;2.92;2.83;;;;;;;3.68;95.48;100534.63;5043821;28;20036;-77
2023/02/16 07:31:52;;;;;;;1.35;1.35;;;;;;;3.75;95.76;100548.47;5045398;28;20076;-78
2023/02/16 07:34:20;;;;;;;1.55;1.50;;;;;;;3.69;95.59;100529.50;5045251;28;20065;-79
2023/02/16 07:36:45;;;;;;;1.13;1.08;;;;;;;3.68;95.74;100539.75;5045004;28;20056;-77
2023/02/16 07:39:11;;;;;;;4.45;4.07;;;;;;;3.72;95.79;100560.41;5045151;28;20136;-78
2023/02/16 07:41:36;;;;;;;0.98;0.98;;;;;;;3.75;95.83;100548.47;5045225;28;20037;-78
2023/02/16 07:44:02;;;;;;;2.53;2.35;;;;;;;3.76;96.05;100555.31;5044662;28;20030;-77
2023/02/16 07:46:27;;;;;;;1.08;1.08;;;;;;;3.69;96.09;100532.09;5045020;28;20036;-77
2023/02/16 07:48:52;;;;;;;3.55;3.35;;;;;;;3.77;96.20;100550.22;5045118;28;20057;-78
2023/02/16 07:51:27;;;;;;;0.88;0.88;;;;;;;3.79;96.28;100551.13;5060349;28;20025;-78
2023/02/16 07:53:56;;;;;;;4.25;1.58;;;;;;;3.81;96.47;100556.31;5044919;28;20100;-78
2023/02/16 07:56:31;;;;;;;3.75;3.55;;;;;;;3.82;96.19;100551.19;5045040;28;20025;-78
2023/02/16 07:58:58;;;;;;;0.68;0.68;;;;;;;3.82;96.39;100551.19;5043312;28;20385;-78
2023/02/16 08:01:24;;;;;;;3.13;2.92;;;;;;;3.83;96.28;100557.22;5045103;28;20021;-76
2023/02/16 08:03:50;;;;;;;1.33;1.33;;;;;;;3.85;96.78;100563.22;5047514;28;20052;-78
2023/02/16 08:06:16;;;;;;;2.03;1.92;;;;;;;3.86;96.64;100552.13;5048581;28;20343;-77
2023/02/16 08:08:42;;;;;;;8.27;7.82;;;;;;;3.92;96.50;100551.41;5048444;28;20088;-77
2023/02/16 08:11:13;;;;;;;5.90;5.60;;;;;;;3.92;96.67;100559.09;5048539;28;20100;-78
2023/02/16 08:13:42;;;;;;;4.07;3.70;;;;;;;3.95;96.94;100554.91;5048422;28;20103;-77
2023/02/16 08:16:09;;;;;;;3.13;2.38;;;;;;;3.98;96.78;100556.66;5047339;28;20259;-78
2023/02/16 08:18:34;;;;;;;1.83;1.73;;;;;;;3.98;96.88;100566.94;5063969;28;20021;-78
2023/02/16 08:21:13;;;;;;;0.60;0.60;;;;;;;3.94;96.78;100555.75;5048730;28;20064;-77
2023/02/16 08:23:40;;;;;;;4.30;4.00;;;;;;;4.03;96.57;100554.19;5048514;28;20029;-79
2023/02/16 08:26:10;;;;;;;1.15;1.15;;;;;;;4.05;96.78;100563.69;5048316;28;20021;-77
2023/02/16 08:28:44;;;;;;;5.57;5.20;;;;;;;4.09;96.67;100562.91;5063222;28;20076;-78
2023/02/16 08:31:12;;;;;;;4.50;3.00;;;;;;;4.12;96.69;100563.81;5048320;28;20096;-78
2023/02/16 08:33:38;;;;;;;6.43;3.88;;;;;;;4.12;96.56;100568.94;5063660;28;20029;-78
2023/02/16 08:36:08;;;;;;;6.28;4.43;;;;;;;4.12;96.56;100561.22;5048628;28;20028;-78
2023/02/16 08:38:34;;;;;;;1.60;1.55;;;;;;;4.15;96.99;100554.47;5063498;28;20112;-78
2023/02/16 08:40:59;;;;;;;8.10;4.10;;;;;;;4.21;96.78;100554.59;5048068;28;20402;-76
2023/02/16 08:43:25;;;;;;;2.65;2.55;;;;;;;4.17;96.62;100560.47;5047855;28;20033;-78
2023/02/16 08:45:52;;;;;;;2.85;2.65;;;;;;;4.21;96.36;100557.16;5047912;28;20026;-76
2023/02/16 08:48:17;;;;;;;1.23;1.23;;;;;;;4.19;96.52;100560.50;5063129;28;20036;-77
2023/02/16 08:50:52;;;;;;;1.20;1.20;;;;;;;4.22;96.54;100561.44;5047826;28;20021;-77
2023/02/16 08:53:20;;;;;;;2.03;1.95;;;;;;;4.23;96.49;100554.63;5047843;28;20017;-77
2023/02/16 08:55:54;;;;;;;1.98;1.88;;;;;;;4.29;96.68;100566.72;5047899;28;20482;-78
2023/02/16 08:58:20;;;;;;;21.13;7.82;;;;;;;4.34;96.58;100565.09;5047507;28;20112;-77
2023/02/16 09:00:45;;;;;;;2.17;2.08;;;;;;;4.34;96.48;100559.97;5047728;28;20489;-77
2023/02/16 09:03:12;;;;;;;1.02;1.02;;;;;;;4.38;96.46;100566.03;5046379;28;20035;-77
2023/02/16 09:05:37;;;;;;;0.60;0.60;;;;;;;4.42;96.40;100562.69;5062803;28;20029;-77
2023/02/16 09:08:03;;;;;;;2.38;2.28;;;;;;;4.45;96.39;100566.19;5047308;28;20028;-78
2023/02/16 09:10:28;;;;;;;3.47;3.33;;;;;;;4.48;96.15;100560.22;5062929;28;20056;-78
2023/02/16 09:12:54;;;;;;;1.35;1.35;;;;;;;4.51;96.25;100554.25;5047224;28;20454;-76
2023/02/16 09:15:21;;;;;;;1.27;1.25;;;;;;;4.55;96.28;100561.22;5045568;28;20035;-78
2023/02/16 09:17:46;;;;;;;7.38;6.75;;;;;;;4.54;96.26;100544.91;5062810;28;20108;-78
2023/02/16 09:20:12;;;;;;;0.65;0.65;;;;;;;4.53;96.21;100544.88;5047390;28;20030;-78
2023/02/16 09:22:38;;;;;;;1.75;1.70;;;;;;;4.64;96.14;100555.38;5047202;28;20069;-78
2023/02/16 09:25:06;;;;;;;3.03;2.83;;;;;;;4.64;96.46;100553.66;5046988;28;20021;-77
2023/02/16 09:27:32;;;;;;;1.35;1.33;;;;;;;4.70;96.45;100545.19;5051482;28;20018;-78
2023/02/16 09:29:58;;;;;;;2.35;2.25;;;;;;;4.78;96.41;100545.31;5052213;28;20075;-78
2023/02/16 09:32:27;;;;;;;0.73;0.73;;;;;;;4.80;96.24;100548.78;5047300;28;20478;-77
2023/02/16 09:34:54;;;;;;;2.15;2.08;;;;;;;4.78;96.43;100535.91;5046883;28;20093;-78
2023/02/16 09:37:19;;;;;;;6.13;5.60;;;;;;;4.90;96.50;100555.84;5062174;28;20113;-79
2023/02/16 09:39:45;;;;;;;1.60;1.50;;;;;;;4.96;96.43;100560.22;5046734;28;20037;-78
2023/02/16 09:42:28;;;;;;;7.20;6.53;;;;;;;4.98;96.58;100555.97;5045655;28;20040;-77
2023/02/16 09:45:16;;;;;;;4.28;4.07;;;;;;;5.02;96.37;100560.31;5046602;28;20138;-78
2023/02/16 09:47:44;;;;;;;1.35;1.35;;;;;;;5.04;96.42;100560.34;5061822;28;20048;-78
2023/02/16 09:50:18;;;;;;;7.47;6.88;;;;;;;5.06;96.23;100561.25;5046536;28;20477;-78
2023/02/16 09:53:04;;;;;;;10.38;9.38;;;;;;;5.08;96.17;100552.72;5046695;28;20039;-77
2023/02/16 09:55:53;;;;;;;3.05;2.95;;;;;;;5.12;95.93;100558.78;5045378;28;20032;-79
2023/02/16 09:58:22;;;;;;;2.05;1.95;;;;;;;5.15;96.15;100553.69;5061625;28;20025;-78
2023/02/16 10:00:55;;;;;;;3.55;3.38;;;;;;;5.10;95.87;100547.59;5046563;28;20025;-79
2023/02/16 10:03:33;;;;;;;2.70;2.15;;;;;;;5.11;96.05;100554.47;5046517;28;20029;-78
2023/02/16 10:06:40;;;;;;;3.63;3.42;;;;;;;5.16;96.10;100567.44;5061816;28;20025;-78
2023/02/16 10:09:11;;;;;;;3.78;3.58;;;;;;;5.17;96.02;100567.44;5061836;28;20021;-77
2023/02/16 10:11:47;;;;;;;4.13;3.92;;;;;;;5.19;95.70;100568.31;5061769;28;20036;-77
2023/02/16 10:14:31;;;;;;;2.58;2.47;;;;;;;5.14;95.87;100569.97;5046104;28;20389;-77
2023/02/16 10:17:06;;;;;;;7.72;4.32;;;;;;;5.15;95.70;100571.69;5046148;28;20026;-75
2023/02/16 10:19:44;;;;;;;3.42;2.17;;;;;;;5.18;95.94;100578.59;5044923;28;20112;-76
2023/02/16 10:22:15;;;;;;;2.78;2.67;;;;;;;5.10;95.76;100568.16;5061275;28;20026;-76
2023/02/16 10:24:50;;;;;;;2.03;1.92;;;;;;;5.08;95.90;100564.69;5045947;28;20029;-76
2023/02/16 10:27:15;;;;;;;2.65;2.47;;;;;;;5.14;95.82;100575.13;5061189;28;20470;-74
2023/02/16 10:29:41;;;;;;;3.08;2.88;;;;;;;5.18;96.16;100574.31;5044446;28;20029;-74
2023/02/16 10:32:27;;;;;;;1.25;1.25;;;;;;;5.18;95.98;100582.03;5061278;28;20025;-75
2023/02/16 10:34:59;;;;;;;1.13;1.13;;;;;;;5.19;95.92;100580.34;5061029;28;20025;-75
2023/02/16 10:37:33;;;;;;;5.68;5.30;;;;;;;5.20;95.96;100580.38;5060954;28;20030;-75
2023/02/16 10:40:19;;;;;;;1.73;1.67;;;;;;;5.20;95.84;100575.22;5044075;28;20050;-75
2023/02/16 10:43:38;;;;;;;0.60;0.60;;;;;;;5.29;95.98;100583.91;5045311;28;20048;-73
2023/02/16 10:46:04;;;;;;;6.00;2.05;;;;;;;5.33;95.76;100580.56;4984498;28;20075;-75
2023/02/16 10:48:31;;;;;;;3.50;3.30;;;;;;;5.30;95.51;100581.38;4968281;28;20027;-74
2023/02/16 10:51:11;;;;;;;3.53;3.33;;;;;;;5.35;96.03;100572.88;4984035;28;20041;-75
2023/02/16 10:53:45;;;;;;;1.27;1.27;;;;;;;5.43;95.87;100571.28;4984378;28;20030;-76
2023/02/16 10:56:27;;;;;;;1.02;1.02;;;;;;;5.44;95.75;100575.59;4984131;28;20063;-75
2023/02/16 10:58:53;;;;;;;3.40;1.57;;;;;;;5.55;95.68;100566.31;4984063;28;20027;-73
2023/02/16 11:01:29;;;;;;;2.72;2.58;;;;;;;5.59;95.97;100569.81;4968111;28;20034;-73
2023/02/16 11:03:54;;;;;;;4.55;4.30;;;;;;;5.62;95.82;100567.28;4984128;28;20039;-73
2023/02/16 11:06:24;;;;;;;2.90;2.70;;;;;;;5.69;95.96;100558.78;4984208;28;20113;-71
2023/02/16 11:08:56;;;;;;;0.60;0.60;;;;;;;5.81;96.15;100564.97;4967918;28;20031;-73
2023/02/16 11:11:34;;;;;;;4.85;4.45;;;;;;;5.88;96.00;100553.03;4983958;28;20034;-71
2023/02/16 11:14:03;;;;;;;2.63;2.53;;;;;;;5.91;96.07;100548.75;4983999;28;20451;-72
2023/02/16 11:16:29;;;;;;;3.10;2.88;;;;;;;5.98;95.73;100551.41;5012489;28;20037;-72
2023/02/16 11:19:00;;;;;;;1.30;1.30;;;;;;;5.99;96.06;100546.28;5043590;28;20132;-72
2023/02/16 11:21:47;;;;;;;2.63;2.53;;;;;;;6.06;95.81;100552.41;5045212;28;20029;-71
2023/02/16 11:24:36;;;;;;;0.60;0.60;;;;;;;6.10;95.69;100564.50;5044952;28;20048;-71
2023/02/16 11:27:06;;;;;;;3.88;3.53;;;;;;;6.03;95.48;100544.63;5060370;28;20022;-71
2023/02/16 11:29:33;;;;;;;2.55;2.45;;;;;;;6.08;94.74;100545.59;5060214;28;20032;-72
2023/02/16 11:32:05;;;;;;;0.63;0.63;;;;;;;6.03;94.41;100560.97;5060383;28;20183;-71
2023/02/16 11:34:32;;;;;;;;;;;;;;;6.11;94.72;100573.97;5045532;28;20083;-71
2023/02/16 11:37:16;;;;;;;0.50;0.50;;;;;;;6.06;94.44;100576.50;5045031;28;19909;-70
2023/02/16 11:39:55;;;;;;;0.50;0.50;;;;;;;6.04;94.47;100564.38;5064339;28;20096;-70
2023/02/16 11:42:45;;;;;;;0.60;0.60;;;;;;;6.10;94.69;100569.66;5048926;28;20048;-70
2023/02/16 11:45:33;;;;;;;0.85;0.85;;;;;;;6.08;94.48;100571.34;5064152;28;20390;-71
2023/02/16 11:47:58;;;;;;;3.65;3.40;;;;;;;6.10;94.18;100569.66;5048714;28;20024;-70
2023/02/16 11:50:32;;;;;;;0.47;0.47;;;;;;;6.17;94.61;100571.47;5048882;28;20029;-70
2023/02/16 11:53:22;;;;;;;0.60;0.60;;;;;;;6.23;94.48;100569.81;5047399;28;20056;-70
2023/02/16 11:55:49;;;;;;;1.73;1.63;;;;;;;6.17;94.05;100565.44;5048802;28;20496;-71
2023/02/16 11:58:26;;;;;;;2.75;1.98;;;;;;;6.13;93.30;100561.09;5063845;28;20030;-71
2023/02/16 12:01:20;;;;;;;1.20;1.20;;;;;;;6.06;93.77;100555.00;5048744;28;20037;-71
2023/02/16 12:03:52;;;;;;;0.82;0.82;;;;;;;6.16;94.26;100567.16;5048798;28;20017;-73
2023/02/16 12:06:39;;;;;;;1.60;1.50;;;;;;;6.19;93.73;100558.59;5048705;28;20081;-71
2023/02/16 12:09:30;;;;;;;1.30;1.30;;;;;;;6.10;93.38;100555.91;5064045;28;20462;-72
2023/02/16 12:12:13;;;;;;;1.40;1.40;;;;;;;6.11;92.98;100560.22;5048551;28;20036;-72
2023/02/16 12:14:39;;;;;;;2.63;2.50;;;;;;;6.06;92.83;100560.16;5048245;28;20021;-74
2023/02/16 12:17:11;;;;;;;1.95;1.85;;;;;;;6.02;92.78;100559.19;5063703;28;20026;-73
2023/02/16 12:19:44;;;;;;;0.60;0.60;;;;;;;5.97;92.87;100552.28;5063954;28;20025;-74
2023/02/16 12:22:32;;;;;;;0.55;0.55;;;;;;;5.96;92.61;100551.41;5063616;28;20389;-75
2023/02/16 12:25:12;;;;;;;0.57;0.57;;;;;;;5.97;92.38;100554.84;5046966;28;20029;-74
2023/02/16 12:27:56;;;;;;;2.00;1.92;;;;;;;5.94;92.74;100555.69;5048199;28;20021;-74
2023/02/16 12:30:25;;;;;;;1.60;1.60;;;;;;;5.97;92.80;100560.00;5063886;28;20051;-73
2023/02/16 12:33:17;;;;;;;3.20;2.55;;;;;;;6.04;92.92;100564.38;5048343;28;20021;-74